Time;durP1;ratioP1;P1;durP2;ratioP2;P2;SDS_P1;SDS_P2;PMS_P1;PMS_P2;Temp;Humidity;BMP_temperature;BMP_pressure;BME280_temperature;BME280_humidity;BME280_pressure;Samples;Min_cycle;Max_cycle;Signal;HPM_P1;HPM_P2
2021/07/11 00:00:21;;;;;;;9.73;8.20;;;16.30;99.90;;;;;;4937413;29;20059;-79
2021/07/11 00:02:47;;;;;;;8.52;7.70;;;16.20;99.90;;;;;;4954668;29;20031;-78
2021/07/11 00:05:15;;;;;;;10.35;8.15;;;16.20;99.90;;;;;;4937454;29;20145;-78
2021/07/11 00:07:40;;;;;;;8.55;7.65;;;16.20;99.90;;;;;;4937355;29;20066;-78
2021/07/11 00:10:08;;;;;;;12.10;8.45;;;16.20;99.90;;;;;;4954649;29;20110;-78
2021/07/11 00:12:33;;;;;;;10.07;8.93;;;16.20;99.90;;;;;;4968929;28;20023;-78
2021/07/11 00:14:59;;;;;;;9.07;8.18;;;16.20;99.90;;;;;;4975841;28;20025;-78
2021/07/11 00:17:25;;;;;;;10.23;8.43;;;16.20;99.90;;;;;;4993347;28;20022;-78
2021/07/11 00:19:51;;;;;;;8.27;7.18;;;16.20;99.90;;;;;;4993147;28;20030;-79
2021/07/11 00:22:17;;;;;;;9.82;7.30;;;16.20;99.90;;;;;;4975843;28;20034;-80
2021/07/11 00:24:44;;;;;;;7.10;6.25;;;16.20;99.90;;;;;;4955471;28;20069;-78
2021/07/11 00:27:10;;;;;;;7.93;7.13;;;16.20;99.90;;;;;;4956469;28;20027;-78
2021/07/11 00:29:35;;;;;;;9.85;7.70;;;16.20;99.90;;;;;;4958118;28;20428;-78
2021/07/11 00:32:01;;;;;;;10.13;7.90;;;16.20;99.90;;;;;;4960276;28;20070;-80
2021/07/11 00:34:27;;;;;;;9.85;7.72;;;16.20;99.90;;;;;;4960145;28;20023;-78
2021/07/11 00:36:53;;;;;;;9.25;8.00;;;16.20;99.90;;;;;;4960386;28;20034;-79
2021/07/11 00:39:19;;;;;;;8.82;7.75;;;16.20;99.90;;;;;;4979443;28;20379;-79
2021/07/11 00:41:45;;;;;;;9.85;7.93;;;16.20;99.90;;;;;;4979241;28;20080;-78
2021/07/11 00:44:10;;;;;;;7.43;6.53;;;16.20;99.90;;;;;;4979272;28;20022;-79
2021/07/11 00:46:36;;;;;;;9.85;7.68;;;16.20;99.90;;;;;;4979272;28;20026;-79
2021/07/11 00:49:07;;;;;;;9.75;8.75;;;16.20;99.90;;;;;;4995412;28;20029;-78
2021/07/11 00:51:35;;;;;;;9.90;8.02;;;16.20;99.90;;;;;;4995357;28;20169;-79
2021/07/11 00:54:01;;;;;;;10.00;7.90;;;16.10;99.90;;;;;;4971119;28;20032;-78
2021/07/11 00:56:27;;;;;;;9.43;8.20;;;16.00;99.90;;;;;;4957659;29;20028;-79
2021/07/11 00:58:54;;;;;;;10.90;8.75;;;16.00;99.90;;;;;;4958048;29;20402;-79
2021/07/11 01:01:53;;;;;;;9.68;8.35;;;16.00;99.90;;;;;;4940500;29;20086;-79
2021/07/11 01:04:26;;;;;;;12.18;9.57;;;16.00;99.90;;;;;;4940418;29;20451;-78
2021/07/11 01:06:57;;;;;;;9.40;8.40;;;16.00;99.90;;;;;;4943156;28;20031;-78
2021/07/11 01:09:31;;;;;;;11.30;9.38;;;16.00;99.90;;;;;;4959631;28;20030;-79
2021/07/11 01:12:03;;;;;;;12.40;8.68;;;16.00;99.90;;;;;;4959564;28;20468;-79
2021/07/11 01:14:30;;;;;;;9.25;8.30;;;15.90;99.90;;;;;;4976779;28;20030;-78
2021/07/11 01:16:58;;;;;;;10.35;8.60;;;15.90;99.90;;;;;;4959463;28;20031;-79
2021/07/11 01:19:44;;;;;;;11.60;8.55;;;15.90;99.90;;;;;;4959289;28;20026;-79
2021/07/11 01:22:13;;;;;;;10.45;8.75;;;15.90;99.90;;;;;;4959114;28;20547;-78
2021/07/11 01:24:46;;;;;;;9.65;8.10;;;15.90;99.90;;;;;;4941805;29;20459;-78
2021/07/11 01:27:13;;;;;;;10.48;9.05;;;15.80;99.90;;;;;;4957371;29;20052;-79
2021/07/11 01:29:40;;;;;;;10.07;8.90;;;15.80;99.90;;;;;;4939793;29;20027;-79
2021/07/11 01:32:06;;;;;;;11.60;9.02;;;15.80;99.90;;;;;;4940023;29;20489;-79
2021/07/11 01:34:32;;;;;;;11.32;9.18;;;15.80;99.90;;;;;;4957124;29;20034;-79
2021/07/11 01:36:59;;;;;;;14.60;10.10;;;15.80;99.90;;;;;;4939951;29;20027;-79
2021/07/11 01:39:27;;;;;;;12.15;10.30;;;15.80;99.90;;;;;;4939623;28;20031;-78
2021/07/11 01:41:53;;;;;;;12.85;9.45;;;15.80;99.90;;;;;;4940679;29;20314;-78
2021/07/11 01:44:20;;;;;;;11.10;9.80;;;15.70;99.90;;;;;;4956975;29;20371;-78
2021/07/11 01:46:46;;;;;;;12.75;10.35;;;15.70;99.90;;;;;;4956879;29;20023;-79
2021/07/11 01:49:12;;;;;;;13.93;9.98;;;15.80;99.90;;;;;;4939537;29;20058;-78
2021/07/11 01:51:38;;;;;;;12.63;10.93;;;15.80;99.90;;;;;;4939588;29;20381;-78
2021/07/11 01:54:04;;;;;;;15.60;11.27;;;15.80;99.90;;;;;;4939521;29;20024;-78
2021/07/11 01:56:30;;;;;;;12.65;10.88;;;15.80;99.90;;;;;;4939582;29;20025;-78
2021/07/11 01:58:56;;;;;;;12.77;10.55;;;15.80;99.90;;;;;;4939444;29;20024;-78
2021/07/11 02:01:21;;;;;;;13.43;10.20;;;15.80;99.90;;;;;;4939471;29;20038;-80
2021/07/11 02:03:47;;;;;;;12.00;10.68;;;15.80;99.90;;;;;;4939307;29;20023;-78
2021/07/11 02:06:14;;;;;;;13.13;10.68;;;15.80;99.90;;;;;;4939422;29;20023;-80
2021/07/11 02:08:41;;;;;;;14.75;11.30;;;15.90;99.90;;;;;;4939185;29;20366;-79
2021/07/11 02:11:09;;;;;;;11.38;10.10;;;15.80;99.90;;;;;;4956563;29;20054;-79
2021/07/11 02:13:46;;;;;;;13.45;11.25;;;15.90;99.90;;;;;;4955615;28;20030;-78
2021/07/11 02:16:18;;;;;;;11.68;10.20;;;15.90;99.90;;;;;;4975814;28;20062;-79
2021/07/11 02:18:44;;;;;;;12.95;10.55;;;15.90;99.90;;;;;;4958300;28;20034;-79
2021/07/11 02:21:10;;;;;;;11.02;9.65;;;15.90;99.90;;;;;;4975591;28;20073;-79
2021/07/11 02:23:37;;;;;;;12.95;10.30;;;15.80;99.90;;;;;;4958168;28;20050;-79
2021/07/11 02:26:06;;;;;;;12.43;10.75;;;15.80;99.90;;;;;;4958190;28;20023;-79
2021/07/11 02:28:34;;;;;;;14.32;11.40;;;15.90;99.90;;;;;;4957935;28;20488;-79
2021/07/11 02:31:02;;;;;;;13.70;11.60;;;15.90;99.90;;;;;;4958472;28;20038;-79
2021/07/11 02:33:36;;;;;;;15.52;11.82;;;15.90;99.90;;;;;;4967362;28;20027;-78
2021/07/11 02:36:04;;;;;;;15.02;11.32;;;15.90;99.90;;;;;;4956077;29;20520;-78
2021/07/11 02:38:49;;;;;;;11.95;10.07;;;16.00;99.90;;;;;;4955887;29;20032;-79
2021/07/11 02:41:17;;;;;;;15.38;10.70;;;16.10;99.90;;;;;;4938746;29;20035;-79
2021/07/11 02:43:45;;;;;;;16.75;11.65;;;16.10;99.90;;;;;;4938635;29;20023;-78
2021/07/11 02:46:16;;;;;;;12.32;10.95;;;16.20;99.90;;;;;;4955836;29;20032;-79
2021/07/11 02:48:44;;;;;;;14.13;11.20;;;16.20;99.90;;;;;;4955652;29;20023;-78
2021/07/11 02:51:17;;;;;;;11.68;10.20;;;16.30;99.90;;;;;;4938137;28;20031;-79
2021/07/11 02:53:44;;;;;;;15.00;12.48;;;16.40;99.90;;;;;;4938376;29;20032;-78
2021/07/11 02:56:13;;;;;;;16.00;11.20;;;16.40;99.90;;;;;;4938459;29;20019;-79
2021/07/11 02:58:40;;;;;;;14.50;11.95;;;16.40;99.90;;;;;;4938271;29;20046;-79
2021/07/11 03:01:06;;;;;;;13.75;10.88;;;16.40;99.90;;;;;;4955481;29;20508;-79
2021/07/11 03:03:34;;;;;;;14.50;10.90;;;16.50;99.90;;;;;;4945960;28;20026;-79
2021/07/11 03:06:00;;;;;;;14.35;11.65;;;16.50;99.90;;;;;;4957181;28;20030;-78
2021/07/11 03:08:27;;;;;;;12.95;11.35;;;16.50;99.90;;;;;;4974721;28;20531;-78
2021/07/11 03:10:55;;;;;;;17.02;10.93;;;16.60;99.90;;;;;;4974637;28;20034;-78
2021/07/11 03:13:21;;;;;;;15.57;11.23;;;16.60;99.90;;;;;;4956987;28;20033;-79
2021/07/11 03:15:47;;;;;;;14.07;11.60;;;16.60;99.90;;;;;;4957039;28;20027;-79
2021/07/11 03:18:14;;;;;;;14.98;10.80;;;16.60;99.90;;;;;;4957189;28;20023;-79
2021/07/11 03:20:41;;;;;;;16.02;11.30;;;16.70;99.90;;;;;;4957068;28;20046;-79
2021/07/11 03:23:07;;;;;;;13.35;11.68;;;16.60;99.90;;;;;;4957253;28;20040;-79
2021/07/11 03:25:33;;;;;;;11.35;10.02;;;16.70;99.90;;;;;;4974323;28;20026;-79
2021/07/11 03:28:04;;;;;;;11.82;10.63;;;16.70;99.90;;;;;;4957008;28;20370;-79
2021/07/11 03:30:36;;;;;;;12.00;10.40;;;16.70;99.90;;;;;;4957177;28;20042;-79
2021/07/11 03:33:04;;;;;;;14.00;10.65;;;16.80;99.90;;;;;;4955414;28;20022;-79
2021/07/11 03:35:36;;;;;;;14.48;10.38;;;16.90;99.90;;;;;;4956951;28;20019;-79
2021/07/11 03:38:03;;;;;;;;;;;16.90;99.90;;;;;;4957386;28;20077;-79
2021/07/11 03:40:37;;;;;;;12.38;10.23;;;16.90;99.90;;;;;;4974459;28;19917;-79
2021/07/11 03:43:09;;;;;;;13.35;11.52;;;17.00;99.90;;;;;;4956920;28;20031;-79
2021/07/11 03:45:37;;;;;;;15.07;10.75;;;17.00;99.90;;;;;;4956665;28;20023;-79
2021/07/11 03:48:25;;;;;;;12.63;11.07;;;17.00;99.90;;;;;;4957001;28;20054;-78
2021/07/11 03:50:55;;;;;;;16.08;11.68;;;17.10;99.90;;;;;;4974105;28;20026;-79
2021/07/11 03:53:24;;;;;;;12.50;9.73;;;17.10;99.90;;;;;;4956864;28;20019;-79
2021/07/11 03:55:51;;;;;;;11.13;9.98;;;17.00;99.90;;;;;;4941296;28;20033;-79
2021/07/11 03:58:21;;;;;;;13.38;10.70;;;17.10;99.90;;;;;;4954830;29;20519;-79
2021/07/11 04:00:48;;;;;;;10.77;9.65;;;17.10;99.90;;;;;;4937393;29;20432;-79
2021/07/11 04:03:15;;;;;;;12.05;9.75;;;17.10;99.90;;;;;;4956068;28;20023;-78
2021/07/11 04:05:42;;;;;;;13.13;9.80;;;17.10;99.90;;;;;;4958777;29;20028;-79
2021/07/11 04:08:16;;;;;;;11.10;9.85;;;17.10;99.90;;;;;;4958804;29;20036;-79
2021/07/11 04:10:43;;;;;;;10.05;9.05;;;17.00;99.90;;;;;;4941483;29;20070;-79
2021/07/11 04:13:09;;;;;;;11.27;9.27;;;17.00;99.90;;;;;;4941474;29;20039;-79
2021/07/11 04:15:36;;;;;;;10.43;9.32;;;17.00;99.90;;;;;;4941269;29;20023;-79
2021/07/11 04:18:06;;;;;;;10.02;8.40;;;17.20;99.90;;;;;;4941324;29;20042;-79
2021/07/11 04:20:32;;;;;;;9.43;8.52;;;17.20;99.90;;;;;;4941117;29;20066;-79
2021/07/11 04:23:00;;;;;;;14.95;9.68;;;17.40;99.90;;;;;;4958295;29;20019;-79
2021/07/11 04:25:31;;;;;;;10.45;8.77;;;17.60;99.90;;;;;;4957182;28;20394;-79
2021/07/11 04:27:57;;;;;;;11.52;8.15;;;17.70;99.90;;;;;;4977641;28;20412;-79
2021/07/11 04:30:23;;;;;;;10.02;9.05;;;17.60;99.90;;;;;;4960339;28;20118;-78
2021/07/11 04:32:49;;;;;;;13.65;8.55;;;17.70;99.90;;;;;;4960184;28;20062;-79
2021/07/11 04:35:15;;;;;;;8.73;7.43;;;17.60;99.90;;;;;;4977567;28;20027;-79
2021/07/11 04:37:40;;;;;;;9.77;8.25;;;17.60;99.90;;;;;;4960082;28;20023;-79
2021/07/11 04:40:07;;;;;;;9.35;7.63;;;17.60;99.90;;;;;;4960029;28;20061;-79
2021/07/11 04:42:33;;;;;;;8.80;7.53;;;17.60;99.90;;;;;;4977431;28;20027;-79
2021/07/11 04:45:02;;;;;;;9.25;7.60;;;17.80;99.90;;;;;;4955269;29;20031;-79
2021/07/11 04:47:27;;;;;;;8.63;7.68;;;18.00;99.90;;;;;;4938546;29;20038;-78
2021/07/11 04:49:53;;;;;;;12.30;6.88;;;18.10;99.90;;;;;;4960837;28;20031;-79
2021/07/11 04:52:19;;;;;;;9.95;7.03;;;18.30;99.90;;;;;;4975835;28;20126;-79
2021/07/11 04:54:44;;;;;;;6.97;6.28;;;18.30;99.60;;;;;;4976261;28;20062;-78
2021/07/11 04:57:10;;;;;;;7.18;6.47;;;18.40;99.90;;;;;;4975690;28;20030;-79
2021/07/11 04:59:36;;;;;;;9.23;8.00;;;18.50;97.60;;;;;;4975512;28;20023;-79
2021/07/11 05:02:02;;;;;;;8.40;6.60;;;18.60;96.90;;;;;;4976388;28;20117;-79
2021/07/11 05:04:28;;;;;;;7.50;6.60;;;18.70;96.80;;;;;;4975555;28;20030;-78
2021/07/11 05:06:54;;;;;;;6.68;5.75;;;18.70;95.70;;;;;;4975319;28;20019;-79
2021/07/11 05:09:20;;;;;;;7.63;6.72;;;18.70;94.70;;;;;;4975867;28;20613;-79
2021/07/11 05:11:46;;;;;;;7.22;6.53;;;18.80;97.00;;;;;;4975577;28;20408;-80
2021/07/11 05:14:11;;;;;;;7.63;6.65;;;18.80;96.60;;;;;;4991461;28;20105;-79
2021/07/11 05:16:37;;;;;;;9.43;6.78;;;18.80;97.10;;;;;;4943306;28;20110;-79
2021/07/11 05:19:03;;;;;;;7.70;6.97;;;18.80;96.60;;;;;;4940230;29;20023;-79
2021/07/11 05:21:29;;;;;;;7.35;6.57;;;18.70;96.60;;;;;;4957168;29;20043;-80
2021/07/11 05:23:56;;;;;;;8.63;7.32;;;18.70;98.70;;;;;;4940123;29;20054;-79
2021/07/11 05:26:22;;;;;;;8.27;7.32;;;18.70;98.90;;;;;;4957403;29;20098;-79
2021/07/11 05:28:47;;;;;;;7.53;6.82;;;18.80;99.30;;;;;;4957301;28;20496;-79
2021/07/11 05:31:13;;;;;;;7.10;6.40;;;18.70;98.00;;;;;;4940047;29;20033;-80
2021/07/11 05:33:40;;;;;;;8.18;6.88;;;18.60;97.90;;;;;;4957063;29;20031;-79
2021/07/11 05:36:08;;;;;;;7.30;6.45;;;18.50;98.70;;;;;;4939887;29;20019;-79
2021/07/11 05:38:34;;;;;;;7.45;6.55;;;18.50;99.90;;;;;;4939777;29;20024;-79
2021/07/11 05:41:00;;;;;;;10.63;6.75;;;18.40;99.90;;;;;;4956961;29;20039;-79
2021/07/11 05:43:25;;;;;;;9.48;7.78;;;18.50;99.90;;;;;;4939747;29;20031;-79
2021/07/11 05:45:51;;;;;;;8.65;7.18;;;18.60;99.90;;;;;;4967615;28;20035;-80
2021/07/11 05:48:16;;;;;;;7.88;6.60;;;18.50;99.90;;;;;;4976254;28;20098;-79
2021/07/11 05:50:42;;;;;;;7.18;6.47;;;18.50;99.90;;;;;;4958360;28;20019;-79
2021/07/11 05:53:10;;;;;;;9.15;6.85;;;18.60;99.90;;;;;;4958891;28;20038;-80
2021/07/11 05:55:40;;;;;;;9.05;6.40;;;18.70;99.90;;;;;;4958713;28;20030;-79
2021/07/11 05:58:07;;;;;;;8.45;7.53;;;18.60;99.90;;;;;;4958996;28;20503;-79
2021/07/11 06:00:33;;;;;;;6.90;6.30;;;18.60;99.90;;;;;;4958780;28;20038;-79
2021/07/11 06:02:59;;;;;;;8.05;6.95;;;18.60;99.90;;;;;;4958666;28;20033;-80
2021/07/11 06:05:25;;;;;;;9.38;6.75;;;18.70;99.90;;;;;;4975909;28;20039;-79
2021/07/11 06:07:50;;;;;;;7.72;6.65;;;18.80;99.90;;;;;;4958618;28;20525;-79
2021/07/11 06:10:16;;;;;;;8.15;7.18;;;19.00;97.90;;;;;;4958526;28;20385;-79
2021/07/11 06:12:43;;;;;;;8.15;7.35;;;19.00;97.80;;;;;;4958481;28;20026;-79
2021/07/11 06:15:09;;;;;;;7.75;6.68;;;19.20;98.70;;;;;;4950580;28;20086;-79
2021/07/11 06:17:35;;;;;;;8.20;7.28;;;19.40;97.10;;;;;;4977167;28;20060;-79
2021/07/11 06:20:07;;;;;;;7.53;6.30;;;19.60;93.20;;;;;;4993827;28;20053;-79
2021/07/11 06:22:33;;;;;;;7.20;6.23;;;19.70;94.30;;;;;;4977702;28;20031;-79
2021/07/11 06:24:58;;;;;;;6.70;6.10;;;19.70;92.50;;;;;;4993789;28;20018;-79
2021/07/11 06:27:24;;;;;;;8.23;7.38;;;19.70;93.30;;;;;;4993988;28;20094;-80
2021/07/11 06:29:50;;;;;;;6.65;5.88;;;19.80;94.10;;;;;;4982709;28;20062;-79
2021/07/11 06:32:15;;;;;;;7.97;6.90;;;19.90;92.10;;;;;;4938970;29;20023;-79
2021/07/11 06:34:41;;;;;;;7.10;6.40;;;20.00;91.70;;;;;;4938762;29;20065;-79
2021/07/11 06:37:07;;;;;;;9.05;6.60;;;20.00;92.80;;;;;;4956136;29;20027;-79
2021/07/11 06:39:32;;;;;;;9.15;7.53;;;20.00;92.50;;;;;;4938744;29;20493;-79
2021/07/11 06:41:58;;;;;;;8.00;6.70;;;20.00;92.70;;;;;;4938602;29;20065;-80
2021/07/11 06:44:24;;;;;;;7.70;6.90;;;20.10;92.00;;;;;;4938712;29;20078;-79
2021/07/11 06:46:50;;;;;;;8.05;6.45;;;20.20;93.30;;;;;;4938528;29;20019;-79
2021/07/11 06:49:15;;;;;;;8.02;7.00;;;20.30;92.60;;;;;;4938539;29;20091;-79
2021/07/11 06:51:41;;;;;;;7.57;6.30;;;20.50;92.50;;;;;;4938524;29;20480;-79
2021/07/11 06:54:07;;;;;;;9.45;6.70;;;20.60;90.60;;;;;;4955634;29;20440;-79
2021/07/11 06:56:32;;;;;;;9.07;6.60;;;20.50;90.10;;;;;;4955681;29;20030;-80
2021/07/11 06:58:58;;;;;;;7.15;6.10;;;20.60;89.20;;;;;;4938422;29;20073;-79
2021/07/11 07:01:24;;;;;;;7.18;6.43;;;20.70;89.60;;;;;;4955501;28;20035;-80
2021/07/11 07:03:49;;;;;;;6.75;6.20;;;20.80;87.60;;;;;;4974821;28;20370;-79
2021/07/11 07:06:15;;;;;;;9.88;7.25;;;21.00;87.30;;;;;;4957525;28;20023;-79
2021/07/11 07:08:41;;;;;;;6.30;5.70;;;21.20;85.20;;;;;;4974701;28;20426;-79
2021/07/11 07:11:06;;;;;;;7.10;6.50;;;21.30;84.60;;;;;;4957403;28;20578;-79
2021/07/11 07:13:32;;;;;;;7.38;6.25;;;21.50;84.10;;;;;;4974634;28;20102;-79
2021/07/11 07:15:58;;;;;;;6.30;5.80;;;21.60;85.20;;;;;;4974709;28;20062;-80
2021/07/11 07:18:23;;;;;;;8.02;5.93;;;21.70;81.90;;;;;;4957475;28;20026;-79
2021/07/11 07:20:49;;;;;;;9.20;6.28;;;21.80;83.30;;;;;;4974487;28;20045;-81
2021/07/11 07:23:14;;;;;;;6.45;5.95;;;22.00;81.70;;;;;;4957205;28;20045;-79
2021/07/11 07:25:40;;;;;;;7.70;7.00;;;22.20;82.10;;;;;;4957135;28;20023;-80
2021/07/11 07:28:10;;;;;;;7.47;6.22;;;22.20;79.50;;;;;;4974334;28;20118;-80
2021/07/11 07:30:36;;;;;;;6.68;5.82;;;22.30;78.70;;;;;;4962811;28;20032;-80
2021/07/11 07:33:02;;;;;;;5.93;5.32;;;22.40;79.90;;;;;;4937816;29;20078;-79
2021/07/11 07:35:28;;;;;;;6.05;5.55;;;22.50;78.60;;;;;;4955170;29;20501;-79
2021/07/11 07:37:53;;;;;;;5.35;4.95;;;22.40;77.30;;;;;;4937545;29;20019;-79
2021/07/11 07:40:20;;;;;;;7.60;6.80;;;22.40;80.30;;;;;;4937747;29;20035;-79
2021/07/11 07:42:47;;;;;;;6.30;5.70;;;22.30;80.60;;;;;;4937687;29;20066;-80
2021/07/11 07:45:14;;;;;;;14.30;6.53;;;22.40;80.00;;;;;;4937682;29;20038;-80
2021/07/11 07:47:40;;;;;;;8.35;6.28;;;22.50;79.90;;;;;;4954885;29;20027;-80
2021/07/11 07:50:09;;;;;;;8.40;6.85;;;22.40;78.50;;;;;;4955536;28;20380;-79
2021/07/11 07:52:35;;;;;;;6.18;5.60;;;22.50;78.10;;;;;;4938367;28;20055;-80
2021/07/11 07:55:01;;;;;;;6.13;5.53;;;22.70;78.80;;;;;;4937570;29;20501;-80
2021/07/11 07:57:27;;;;;;;6.97;5.65;;;22.90;78.80;;;;;;4937713;29;20545;-80
2021/07/11 07:59:55;;;;;;;6.60;6.03;;;22.90;77.20;;;;;;4954722;29;20055;-80
2021/07/11 08:02:21;;;;;;;7.40;6.32;;;23.00;78.90;;;;;;4937589;29;20039;-79
2021/07/11 08:04:47;;;;;;;6.20;5.65;;;23.10;76.60;;;;;;4954646;29;20026;-80
2021/07/11 08:07:13;;;;;;;6.38;5.78;;;23.10;76.60;;;;;;4937582;29;20393;-80
2021/07/11 08:09:38;;;;;;;6.45;5.85;;;23.10;77.40;;;;;;4937458;29;20031;-79
2021/07/11 08:12:04;;;;;;;5.65;5.15;;;22.90;76.60;;;;;;4937410;29;20059;-80
2021/07/11 08:14:30;;;;;;;6.30;5.78;;;22.80;77.50;;;;;;4954604;29;20033;-79
2021/07/11 08:16:56;;;;;;;6.70;5.88;;;23.10;79.20;;;;;;4937411;29;20523;-81
2021/07/11 08:19:22;;;;;;;5.68;5.28;;;23.10;78.80;;;;;;4937283;29;20114;-80
2021/07/11 08:21:49;;;;;;;7.60;6.30;;;23.40;78.20;;;;;;4974142;28;20117;-80
2021/07/11 08:24:14;;;;;;;7.05;5.78;;;23.40;78.10;;;;;;4970071;28;20110;-80
2021/07/11 08:26:40;;;;;;;8.15;5.55;;;23.50;78.50;;;;;;4993254;28;20058;-81
2021/07/11 08:29:06;;;;;;;9.32;6.10;;;23.70;77.20;;;;;;4975675;28;20125;-80
2021/07/11 08:31:32;;;;;;;6.03;5.43;;;23.90;76.80;;;;;;4975749;28;20499;-80
2021/07/11 08:33:57;;;;;;;8.57;6.00;;;23.90;76.80;;;;;;4975631;28;20077;-80
2021/07/11 08:36:23;;;;;;;9.48;5.93;;;23.80;74.70;;;;;;4993185;28;20089;-79
2021/07/11 08:38:49;;;;;;;6.18;5.40;;;23.90;77.40;;;;;;4993210;28;20038;-80
2021/07/11 08:41:15;;;;;;;5.97;5.47;;;24.00;76.00;;;;;;4975610;28;20034;-81
2021/07/11 08:43:40;;;;;;;7.80;6.18;;;23.90;75.00;;;;;;4975596;28;20046;-80
2021/07/11 08:46:07;;;;;;;5.40;4.90;;;23.70;76.30;;;;;;4975666;28;20022;-80
2021/07/11 08:48:32;;;;;;;5.75;5.22;;;23.60;76.10;;;;;;4975549;28;20049;-81
2021/07/11 08:51:02;;;;;;;5.88;5.35;;;23.60;79.00;;;;;;4981504;28;20489;-80
2021/07/11 08:53:33;;;;;;;6.15;5.65;;;23.60;78.00;;;;;;4971345;28;20424;-80
2021/07/11 08:56:02;;;;;;;7.13;5.45;;;23.70;79.40;;;;;;4986450;28;20133;-80
2021/07/11 08:58:28;;;;;;;5.82;5.20;;;24.00;76.80;;;;;;4967289;28;20030;-80
2021/07/11 09:00:55;;;;;;;5.55;5.15;;;24.40;76.40;;;;;;4982297;28;20031;-81
2021/07/11 09:03:21;;;;;;;5.82;5.32;;;24.50;72.90;;;;;;4964975;28;20476;-80
2021/07/11 09:05:53;;;;;;;6.85;5.18;;;24.80;74.50;;;;;;4984611;28;20018;-81
2021/07/11 09:08:25;;;;;;;6.43;5.82;;;25.00;72.80;;;;;;4967135;28;20083;-80
2021/07/11 09:10:59;;;;;;;7.40;5.70;;;25.00;71.90;;;;;;4982701;28;20027;-80
2021/07/11 09:13:27;;;;;;;8.93;5.35;;;24.80;71.80;;;;;;4965701;28;20047;-80
2021/07/11 09:15:55;;;;;;;5.82;4.63;;;24.90;71.10;;;;;;4982849;28;20019;-80
2021/07/11 09:18:29;;;;;;;6.30;4.97;;;25.10;73.20;;;;;;4966840;28;20023;-80
2021/07/11 09:21:08;;;;;;;7.07;5.65;;;25.40;70.80;;;;;;4978016;28;20093;-80
2021/07/11 09:23:36;;;;;;;5.45;5.05;;;25.50;70.60;;;;;;4985702;28;20555;-80
2021/07/11 09:26:06;;;;;;;6.82;6.15;;;25.50;70.70;;;;;;4983799;28;20039;-80
2021/07/11 09:28:34;;;;;;;6.60;6.00;;;25.20;71.60;;;;;;4980393;28;20134;-81
2021/07/11 09:31:06;;;;;;;8.50;6.20;;;25.00;72.70;;;;;;4965662;28;20023;-80
2021/07/11 09:33:33;;;;;;;5.97;5.38;;;24.60;73.60;;;;;;4979995;28;20472;-80
2021/07/11 09:36:16;;;;;;;6.93;6.18;;;24.60;75.40;;;;;;4962207;28;20063;-80
2021/07/11 09:38:45;;;;;;;6.57;6.07;;;24.50;75.70;;;;;;4963739;28;20109;-80
2021/07/11 09:41:19;;;;;;;6.30;5.70;;;24.60;75.00;;;;;;4982204;28;20162;-80
2021/07/11 09:43:45;;;;;;;6.25;5.85;;;25.00;74.30;;;;;;4962168;28;20031;-80
2021/07/11 09:46:15;;;;;;;5.47;5.00;;;25.20;74.50;;;;;;4964667;28;20022;-80
2021/07/11 09:48:41;;;;;;;6.60;5.50;;;25.10;73.00;;;;;;4983266;28;20476;-80
2021/07/11 09:51:14;;;;;;;6.97;6.22;;;25.00;74.60;;;;;;4966692;28;20468;-81
2021/07/11 09:53:40;;;;;;;6.95;6.38;;;25.10;74.20;;;;;;4961920;28;20031;-80
2021/07/11 09:56:05;;;;;;;6.30;5.80;;;25.50;71.20;;;;;;4978901;28;20170;-80
2021/07/11 09:58:33;;;;;;;5.80;5.22;;;25.60;71.10;;;;;;4961439;28;20113;-80
2021/07/11 10:00:59;;;;;;;6.25;5.60;;;25.60;69.80;;;;;;4978810;28;20081;-80
2021/07/11 10:03:24;;;;;;;6.20;5.70;;;25.50;71.30;;;;;;4961317;28;20019;-80
2021/07/11 10:05:50;;;;;;;5.82;5.32;;;25.60;70.50;;;;;;4977594;28;20018;-81
2021/07/11 10:08:16;;;;;;;5.72;5.22;;;25.30;70.90;;;;;;4970010;28;20037;-80
2021/07/11 10:10:43;;;;;;;8.27;6.22;;;25.00;72.70;;;;;;4981423;28;20027;-81
2021/07/11 10:13:09;;;;;;;6.75;5.95;;;24.90;76.20;;;;;;4964230;28;20109;-80
2021/07/11 10:15:38;;;;;;;7.43;6.68;;;24.90;75.80;;;;;;4965936;28;20112;-80
2021/07/11 10:18:05;;;;;;;6.18;5.68;;;25.00;73.90;;;;;;4963141;28;20473;-80
2021/07/11 10:20:34;;;;;;;7.35;5.70;;;25.20;74.50;;;;;;4979434;28;20034;-80
2021/07/11 10:23:00;;;;;;;5.90;5.30;;;25.20;75.00;;;;;;4978188;28;20162;-81
2021/07/11 10:25:27;;;;;;;6.53;5.32;;;25.60;73.80;;;;;;4967244;28;20023;-80
2021/07/11 10:28:09;;;;;;;12.65;6.00;;;25.70;70.00;;;;;;4985718;28;20026;-80
2021/07/11 10:30:41;;;;;;;5.95;5.28;;;25.70;71.80;;;;;;4983230;28;20039;-80
2021/07/11 10:33:12;;;;;;;5.68;5.18;;;25.90;70.30;;;;;;4963109;28;20030;-80
2021/07/11 10:35:55;;;;;;;5.65;5.15;;;25.50;71.90;;;;;;4963845;28;20041;-80
2021/07/11 10:38:34;;;;;;;;;;;25.10;71.40;;;;;;4985464;28;20492;-80
2021/07/11 10:41:19;;;;;;;5.95;5.38;;;25.30;72.20;;;;;;4962820;28;20280;-80
2021/07/11 10:43:59;;;;;;;7.00;5.85;;;25.80;71.00;;;;;;4964580;28;20022;-80
2021/07/11 10:46:46;;;;;;;6.80;6.00;;;25.60;70.20;;;;;;4968226;28;20018;-80
2021/07/11 10:49:20;;;;;;;6.75;6.15;;;25.70;71.10;;;;;;4957690;28;20023;-80
2021/07/11 10:51:55;;;;;;;6.35;5.93;;;25.40;72.00;;;;;;4957729;28;20037;-80
2021/07/11 10:54:30;;;;;;;6.03;5.53;;;25.30;72.60;;;;;;4975091;28;20038;-80
2021/07/11 10:56:58;;;;;;;6.32;5.82;;;25.50;73.80;;;;;;4957633;28;20069;-80
2021/07/11 10:59:32;;;;;;;6.30;5.68;;;25.80;73.00;;;;;;4957583;28;20117;-80
2021/07/11 11:01:59;;;;;;;9.45;7.03;;;25.90;70.60;;;;;;4957402;28;20038;-80
2021/07/11 11:04:25;;;;;;;5.72;5.15;;;26.20;71.80;;;;;;4957460;28;20094;-80
2021/07/11 11:06:51;;;;;;;6.13;5.50;;;26.20;69.80;;;;;;4957425;28;20045;-81
2021/07/11 11:09:37;;;;;;;7.30;6.47;;;26.20;70.20;;;;;;4974797;28;20081;-81
2021/07/11 11:12:18;;;;;;;6.75;6.15;;;25.90;70.80;;;;;;4957203;28;20501;-80
2021/07/11 11:15:00;;;;;;;7.40;6.50;;;25.30;73.30;;;;;;4974452;28;20023;-81
2021/07/11 11:17:36;;;;;;;6.57;6.07;;;25.40;76.00;;;;;;4957277;28;20041;-80
2021/07/11 11:20:16;;;;;;;7.38;5.78;;;25.40;75.40;;;;;;4956818;28;20027;-80
2021/07/11 11:22:53;;;;;;;8.90;5.35;;;25.40;73.70;;;;;;4947895;29;20069;-80
2021/07/11 11:25:21;;;;;;;6.60;5.95;;;25.50;73.40;;;;;;4969876;28;20018;-80
2021/07/11 11:27:55;;;;;;;7.15;6.25;;;25.50;74.70;;;;;;4974332;28;20462;-81
2021/07/11 11:30:24;;;;;;;7.15;5.65;;;25.50;73.50;;;;;;4960618;28;20503;-80
2021/07/11 11:32:51;;;;;;;7.05;6.13;;;25.70;73.10;;;;;;4957018;28;20036;-80
2021/07/11 11:35:23;;;;;;;6.75;6.10;;;25.70;72.30;;;;;;4956886;28;20058;-80
2021/07/11 11:37:54;;;;;;;7.30;6.57;;;25.50;73.20;;;;;;4974153;28;20487;-80
2021/07/11 11:40:23;;;;;;;7.32;6.65;;;25.60;73.30;;;;;;4966309;28;20270;-80
2021/07/11 11:42:54;;;;;;;6.75;6.25;;;25.60;72.90;;;;;;4961569;28;20043;-80
2021/07/11 11:45:21;;;;;;;6.93;6.30;;;25.70;72.70;;;;;;4957657;28;20062;-80
2021/07/11 11:48:06;;;;;;;7.15;6.47;;;25.90;74.30;;;;;;4983308;28;20113;-80
2021/07/11 11:50:37;;;;;;;6.95;6.35;;;25.90;74.30;;;;;;4969910;28;20072;-80
2021/07/11 11:53:16;;;;;;;6.93;6.32;;;26.00;72.20;;;;;;4970328;28;20035;-80
2021/07/11 11:55:51;;;;;;;6.50;5.90;;;26.10;72.20;;;;;;4993191;28;20101;-80
2021/07/11 11:58:25;;;;;;;7.50;6.40;;;26.10;71.00;;;;;;4964753;28;20480;-80
2021/07/11 12:01:06;;;;;;;6.47;5.68;;;26.00;72.50;;;;;;4982010;28;20042;-81
2021/07/11 12:03:36;;;;;;;7.03;6.32;;;25.90;72.40;;;;;;4983155;28;20114;-80
2021/07/11 12:06:06;;;;;;;7.47;6.70;;;25.80;72.50;;;;;;4962491;28;20118;-80
2021/07/11 12:08:34;;;;;;;7.18;6.45;;;25.90;72.30;;;;;;4963757;28;20069;-81
2021/07/11 12:11:00;;;;;;;9.25;6.65;;;25.90;73.90;;;;;;4960841;28;20023;-80
2021/07/11 12:13:26;;;;;;;6.88;6.22;;;25.80;73.50;;;;;;4956491;28;20424;-80
2021/07/11 12:16:07;;;;;;;8.90;6.55;;;25.80;73.90;;;;;;4955403;28;20034;-81
2021/07/11 12:18:47;;;;;;;6.30;5.72;;;25.70;74.40;;;;;;4953636;28;20386;-80
2021/07/11 12:21:25;;;;;;;6.63;6.03;;;25.80;73.70;;;;;;4970645;28;20113;-80
2021/07/11 12:24:03;;;;;;;6.80;6.30;;;25.70;75.40;;;;;;4984908;28;20022;-80
2021/07/11 12:26:30;;;;;;;5.72;5.32;;;25.60;75.70;;;;;;4996601;28;20105;-80
2021/07/11 12:28:57;;;;;;;9.00;5.97;;;25.70;76.90;;;;;;4978335;28;20053;-80
2021/07/11 12:31:25;;;;;;;7.03;6.32;;;25.70;77.70;;;;;;4979632;28;20026;-80
2021/07/11 12:33:58;;;;;;;7.95;6.30;;;25.70;78.40;;;;;;4996120;28;20034;-80
2021/07/11 12:36:24;;;;;;;7.25;5.90;;;25.70;75.30;;;;;;4978569;28;20451;-80
2021/07/11 12:38:50;;;;;;;6.90;6.15;;;25.60;75.10;;;;;;4994989;28;20023;-80
2021/07/11 12:41:16;;;;;;;7.25;6.72;;;25.60;75.80;;;;;;4995116;28;20037;-80
2021/07/11 12:43:53;;;;;;;7.30;6.30;;;25.60;74.60;;;;;;4994789;28;20385;-80
2021/07/11 12:46:26;;;;;;;8.23;7.10;;;25.60;75.70;;;;;;4976725;28;20022;-80
2021/07/11 12:49:09;;;;;;;16.73;7.22;;;25.60;75.80;;;;;;4977188;28;20461;-80